Time;durP1;ratioP1;P1;durP2;ratioP2;P2;SDS_P1;SDS_P2;PMS_P1;PMS_P2;Temp;Humidity;BMP_temperature;BMP_pressure;BME280_temperature;BME280_humidity;BME280_pressure;Samples;Min_cycle;Max_cycle;Signal;HPM_P1;HPM_P2
2020/12/05 00:04:12;;;;;;;5.13;2.13;;;;;;;;;;10551487;28;20685;-73
2020/12/05 00:09:14;;;;;;;5.93;2.53;;;;;;;;;;10550954;28;20215;-74
2020/12/05 00:14:16;;;;;;;6.03;2.10;;;;;;;;;;10556712;28;20214;-74
2020/12/05 00:19:19;;;;;;;5.57;2.30;;;;;;;;;;10550442;28;20693;-75
2020/12/05 00:24:21;;;;;;;5.20;1.90;;;;;;;;;;10547682;28;20305;-73
2020/12/05 00:29:22;;;;;;;4.63;2.03;;;;;;;;;;10538052;28;20227;-74
2020/12/05 00:34:24;;;;;;;3.33;1.70;;;;;;;;;;10540485;28;20234;-73
2020/12/05 00:39:26;;;;;;;3.90;1.80;;;;;;;;;;10542104;28;20230;-74
2020/12/05 00:44:27;;;;;;;4.97;1.90;;;;;;;;;;10547867;28;20670;-73
2020/12/05 00:49:30;;;;;;;5.67;2.00;;;;;;;;;;10553042;28;20246;-75
2020/12/05 00:54:33;;;;;;;7.43;2.03;;;;;;;;;;10546261;28;20265;-75
2020/12/05 00:59:34;;;;;;;3.30;1.73;;;;;;;;;;10560201;28;20211;-76
2020/12/05 01:04:36;;;;;;;5.37;2.17;;;;;;;;;;10546146;28;20318;-73
2020/12/05 01:09:38;;;;;;;4.67;1.90;;;;;;;;;;10554312;28;20242;-72
2020/12/05 01:14:40;;;;;;;4.50;2.20;;;;;;;;;;10546818;28;20592;-74
2020/12/05 01:19:41;;;;;;;8.00;2.73;;;;;;;;;;10552842;28;20214;-73
2020/12/05 01:24:44;;;;;;;8.83;3.37;;;;;;;;;;10536027;28;20662;-74
2020/12/05 01:29:45;;;;;;;7.07;3.20;;;;;;;;;;10555981;28;20692;-73
2020/12/05 01:34:47;;;;;;;9.83;3.93;;;;;;;;;;10549815;28;20210;-73
2020/12/05 01:39:49;;;;;;;6.50;2.83;;;;;;;;;;10548638;28;20224;-73
2020/12/05 01:44:50;;;;;;;10.70;4.27;;;;;;;;;;10548526;28;20207;-73
2020/12/05 01:49:52;;;;;;;7.10;3.03;;;;;;;;;;10547419;28;20248;-73
2020/12/05 01:54:54;;;;;;;7.50;2.30;;;;;;;;;;10547500;28;20227;-73
2020/12/05 01:59:56;;;;;;;5.43;2.30;;;;;;;;;;10539686;28;20220;-74
2020/12/05 02:05:02;;;;;;;6.10;2.60;;;;;;;;;;10549501;28;20225;-75
2020/12/05 02:10:08;;;;;;;4.80;2.37;;;;;;;;;;10538192;28;20226;-74
2020/12/05 02:15:12;;;;;;;10.67;4.50;;;;;;;;;;10549354;28;20659;-73
2020/12/05 02:20:14;;;;;;;7.60;3.17;;;;;;;;;;10561491;28;20215;-74
2020/12/05 02:25:16;;;;;;;6.70;2.73;;;;;;;;;;10553725;28;20195;-74
2020/12/05 02:30:18;;;;;;;5.67;2.60;;;;;;;;;;10559588;28;20223;-74
2020/12/05 02:35:19;;;;;;;6.77;2.70;;;;;;;;;;10556521;28;20204;-74
2020/12/05 02:40:22;;;;;;;6.03;2.80;;;;;;;;;;10555292;28;20285;-74
2020/12/05 02:45:23;;;;;;;6.13;2.80;;;;;;;;;;10548595;28;20201;-75
2020/12/05 02:50:25;;;;;;;6.17;2.60;;;;;;;;;;10547412;28;20268;-74
2020/12/05 02:55:28;;;;;;;5.40;2.37;;;;;;;;;;10557903;28;20207;-73
2020/12/05 03:00:29;;;;;;;6.40;2.50;;;;;;;;;;10545897;28;20215;-74
2020/12/05 03:05:31;;;;;;;5.07;2.00;;;;;;;;;;10551597;28;20206;-75
2020/12/05 03:10:33;;;;;;;7.00;3.00;;;;;;;;;;10547831;28;20233;-72
2020/12/05 03:15:35;;;;;;;8.87;4.03;;;;;;;;;;10552195;28;20195;-75
2020/12/05 03:20:37;;;;;;;11.77;6.30;;;;;;;;;;10556081;28;20226;-75
2020/12/05 03:25:39;;;;;;;20.23;9.33;;;;;;;;;;10549633;28;20279;-74
2020/12/05 03:30:41;;;;;;;15.30;7.73;;;;;;;;;;10559368;28;20264;-75
2020/12/05 03:35:43;;;;;;;12.50;4.80;;;;;;;;;;10550914;27;20203;-75
2020/12/05 03:40:45;;;;;;;19.07;9.97;;;;;;;;;;10558128;28;20218;-75
2020/12/05 03:45:46;;;;;;;20.47;11.20;;;;;;;;;;10548465;28;20295;-74
2020/12/05 03:50:48;;;;;;;14.27;8.37;;;;;;;;;;10542931;28;20230;-75
2020/12/05 03:55:52;;;;;;;24.10;12.93;;;;;;;;;;10560549;28;20214;-74
2020/12/05 04:00:54;;;;;;;21.33;11.93;;;;;;;;;;10551468;28;20215;-75
2020/12/05 04:05:55;;;;;;;18.93;11.27;;;;;;;;;;10553215;28;20235;-73
2020/12/05 04:10:58;;;;;;;14.93;6.20;;;;;;;;;;10554252;28;20228;-74
2020/12/05 04:15:59;;;;;;;18.73;9.67;;;;;;;;;;10554269;28;20293;-74
2020/12/05 04:21:01;;;;;;;13.30;6.50;;;;;;;;;;10544361;28;20219;-74
2020/12/05 04:26:03;;;;;;;16.60;8.50;;;;;;;;;;10545103;28;20203;-73
2020/12/05 04:31:05;;;;;;;20.13;11.57;;;;;;;;;;10542144;28;20226;-74
2020/12/05 04:36:07;;;;;;;20.53;11.47;;;;;;;;;;10548893;28;20211;-72
2020/12/05 04:41:09;;;;;;;19.60;9.77;;;;;;;;;;10556976;28;20739;-74
2020/12/05 04:46:12;;;;;;;19.43;10.60;;;;;;;;;;10553508;28;20224;-74
2020/12/05 04:51:16;;;;;;;20.93;11.30;;;;;;;;;;10553195;28;20215;-74
2020/12/05 04:56:19;;;;;;;19.63;9.87;;;;;;;;;;10554457;28;20276;-73
2020/12/05 05:01:21;;;;;;;26.43;13.77;;;;;;;;;;10549549;28;20231;-75
2020/12/05 05:06:22;;;;;;;24.20;13.80;;;;;;;;;;10543859;28;20645;-73
2020/12/05 05:11:27;;;;;;;22.37;13.03;;;;;;;;;;10546377;28;20223;-74
2020/12/05 05:16:29;;;;;;;24.20;13.50;;;;;;;;;;10539197;28;20268;-74
2020/12/05 05:21:34;;;;;;;25.97;14.70;;;;;;;;;;10545055;28;20210;-74
2020/12/05 05:26:36;;;;;;;22.23;13.03;;;;;;;;;;10537022;28;20205;-75
2020/12/05 05:31:49;;;;;;;23.33;12.40;;;;;;;;;;10548324;28;20222;-75
2020/12/05 05:36:50;;;;;;;23.47;13.80;;;;;;;;;;10541608;28;20340;-75
2020/12/05 05:41:53;;;;;;;27.43;14.00;;;;;;;;;;10542863;28;20212;-74
2020/12/05 05:46:55;;;;;;;27.17;15.77;;;;;;;;;;10549471;28;20627;-73
2020/12/05 05:51:57;;;;;;;26.40;14.23;;;;;;;;;;10549058;28;20227;-75
2020/12/05 05:57:04;;;;;;;29.23;16.03;;;;;;;;;;10546846;28;20219;-75
2020/12/05 06:02:07;;;;;;;25.23;14.50;;;;;;;;;;10555854;28;20709;-75
2020/12/05 06:07:09;;;;;;;25.97;14.93;;;;;;;;;;10565988;28;20663;-73
2020/12/05 06:12:12;;;;;;;24.33;14.37;;;;;;;;;;10554755;28;20693;-72
2020/12/05 06:17:14;;;;;;;25.33;14.70;;;;;;;;;;10553231;28;20205;-72
2020/12/05 06:22:27;;;;;;;27.40;16.23;;;;;;;;;;10547545;28;20318;-73
2020/12/05 06:27:31;;;;;;;27.13;15.30;;;;;;;;;;10551356;28;20223;-74
2020/12/05 06:32:40;;;;;;;28.93;15.97;;;;;;;;;;10556691;28;20214;-76
2020/12/05 06:37:41;;;;;;;26.07;15.07;;;;;;;;;;10552659;28;20212;-74
2020/12/05 06:42:45;;;;;;;28.20;15.67;;;;;;;;;;10554150;28;20195;-74
2020/12/05 06:47:46;;;;;;;25.93;15.27;;;;;;;;;;10564118;28;20206;-74
2020/12/05 06:52:48;;;;;;;24.07;14.37;;;;;;;;;;10555612;28;20228;-74
2020/12/05 06:58:00;;;;;;;24.47;14.70;;;;;;;;;;10552556;28;20215;-74
2020/12/05 07:03:02;;;;;;;22.60;13.60;;;;;;;;;;10552817;28;20226;-75
2020/12/05 07:08:20;;;;;;;24.23;15.50;;;;;;;;;;10548594;28;20215;-75
2020/12/05 07:13:27;;;;;;;26.43;15.17;;;;;;;;;;10551659;28;20219;-72
2020/12/05 07:18:28;;;;;;;24.27;15.00;;;;;;;;;;10548221;28;20295;-75
2020/12/05 07:23:29;;;;;;;24.40;14.47;;;;;;;;;;10553824;28;20580;-75
2020/12/05 07:28:32;;;;;;;23.20;14.40;;;;;;;;;;10556987;28;20219;-76
2020/12/05 07:33:34;;;;;;;24.83;14.77;;;;;;;;;;10548855;28;20318;-75
2020/12/05 07:38:36;;;;;;;27.33;14.57;;;;;;;;;;10549953;28;20223;-75
2020/12/05 07:43:39;;;;;;;21.57;13.30;;;;;;;;;;10545260;28;20318;-76
2020/12/05 07:48:41;;;;;;;24.37;14.00;;;;;;;;;;10554700;28;20703;-74
2020/12/05 07:53:42;;;;;;;23.83;13.70;;;;;;;;;;10554422;28;20266;-74
2020/12/05 07:58:46;;;;;;;22.87;13.80;;;;;;;;;;10555557;28;20315;-73
2020/12/05 08:04:01;;;;;;;21.87;12.67;;;;;;;;;;10553486;28;20206;-74
2020/12/05 08:09:04;;;;;;;23.03;13.30;;;;;;;;;;10550776;28;20234;-74
2020/12/05 08:14:06;;;;;;;22.93;13.50;;;;;;;;;;10549753;28;20562;-74
2020/12/05 08:19:08;;;;;;;20.23;12.53;;;;;;;;;;10559607;28;20238;-75
2020/12/05 08:24:11;;;;;;;22.40;12.70;;;;;;;;;;10556201;28;20213;-71
2020/12/05 08:29:13;;;;;;;19.87;12.10;;;;;;;;;;10548336;28;20234;-74
2020/12/05 08:34:27;;;;;;;21.63;12.60;;;;;;;;;;10542578;28;20686;-73
2020/12/05 08:39:31;;;;;;;22.43;12.97;;;;;;;;;;10557254;28;20319;-74
2020/12/05 08:44:33;;;;;;;18.87;11.70;;;;;;;;;;10546865;28;20512;-74
2020/12/05 08:49:35;;;;;;;17.10;10.90;;;;;;;;;;10549550;28;20223;-72
2020/12/05 08:54:44;;;;;;;20.77;11.07;;;;;;;;;;10551335;28;20219;-75
2020/12/05 08:59:47;;;;;;;17.30;11.00;;;;;;;;;;10544349;28;20569;-73
2020/12/05 09:04:48;;;;;;;17.10;9.93;;;;;;;;;;10549465;28;20215;-75
2020/12/05 09:09:50;;;;;;;15.10;9.77;;;;;;;;;;10541233;28;20545;-75
2020/12/05 09:14:55;;;;;;;16.07;8.50;;;;;;;;;;10540862;28;20290;-74
2020/12/05 09:20:09;;;;;;;15.07;9.67;;;;;;;;;;10545897;28;20223;-75
2020/12/05 09:25:10;;;;;;;16.30;8.70;;;;;;;;;;10545244;28;20198;-75
2020/12/05 09:30:13;;;;;;;18.00;11.23;;;;;;;;;;10548852;28;20222;-74
2020/12/05 09:35:15;;;;;;;14.00;8.00;;;;;;;;;;10540321;28;20658;-73
2020/12/05 09:40:18;;;;;;;13.63;7.80;;;;;;;;;;10548110;28;20211;-75
2020/12/05 09:45:20;;;;;;;12.90;7.37;;;;;;;;;;10543995;28;20279;-75
2020/12/05 09:50:22;;;;;;;12.83;7.43;;;;;;;;;;10544525;28;20234;-73
2020/12/05 09:55:24;;;;;;;11.40;6.67;;;;;;;;;;10552814;28;20204;-74
2020/12/05 10:00:26;;;;;;;12.27;7.00;;;;;;;;;;10552166;28;20737;-74
2020/12/05 10:05:29;;;;;;;12.20;7.00;;;;;;;;;;10558755;28;20580;-74
2020/12/05 10:10:30;;;;;;;11.47;6.70;;;;;;;;;;10555766;28;20221;-75
2020/12/05 10:15:33;;;;;;;12.80;7.10;;;;;;;;;;10562372;28;20210;-73
2020/12/05 10:20:34;;;;;;;11.97;7.10;;;;;;;;;;10550165;28;20582;-73
2020/12/05 10:25:36;;;;;;;10.90;6.23;;;;;;;;;;10553923;28;20199;-75
2020/12/05 10:30:39;;;;;;;10.57;6.10;;;;;;;;;;10552134;28;20219;-75
2020/12/05 10:35:40;;;;;;;10.73;5.83;;;;;;;;;;10553382;28;20331;-74
2020/12/05 10:40:42;;;;;;;16.70;9.73;;;;;;;;;;10559988;28;20218;-71
2020/12/05 10:45:44;;;;;;;18.37;9.20;;;;;;;;;;10564451;28;20199;-74
2020/12/05 10:50:46;;;;;;;22.20;12.77;;;;;;;;;;10557697;28;20666;-74
2020/12/05 10:55:47;;;;;;;22.90;12.90;;;;;;;;;;10551200;28;20202;-74
2020/12/05 11:00:49;;;;;;;21.10;13.23;;;;;;;;;;10556667;28;20217;-73
2020/12/05 11:05:51;;;;;;;19.93;13.10;;;;;;;;;;10555608;28;20199;-75
2020/12/05 11:10:52;;;;;;;22.87;13.83;;;;;;;;;;10545550;28;20219;-75
2020/12/05 11:15:55;;;;;;;22.90;14.67;;;;;;;;;;10559988;28;20198;-75
2020/12/05 11:20:57;;;;;;;23.30;14.30;;;;;;;;;;10545969;28;20586;-75
2020/12/05 11:25:58;;;;;;;23.57;13.80;;;;;;;;;;10558153;28;20543;-74
2020/12/05 11:31:00;;;;;;;22.33;11.23;;;;;;;;;;10563479;28;20626;-73
2020/12/05 11:36:02;;;;;;;14.97;7.70;;;;;;;;;;10558470;28;20199;-73
2020/12/05 11:41:04;;;;;;;16.57;8.90;;;;;;;;;;10562108;28;20215;-74
2020/12/05 11:46:06;;;;;;;21.00;12.07;;;;;;;;;;10543986;28;20558;-75
2020/12/05 11:51:08;;;;;;;20.97;13.30;;;;;;;;;;10545909;28;20227;-74
2020/12/05 11:56:09;;;;;;;21.93;12.80;;;;;;;;;;10550625;28;20210;-74
2020/12/05 12:01:12;;;;;;;22.87;12.77;;;;;;;;;;10542008;28;20223;-74
2020/12/05 12:06:14;;;;;;;24.63;14.00;;;;;;;;;;10555329;28;20195;-75
2020/12/05 12:11:16;;;;;;;25.33;14.30;;;;;;;;;;10540931;28;20211;-76
2020/12/05 12:16:18;;;;;;;26.73;14.93;;;;;;;;;;10557019;28;20196;-75
2020/12/05 12:21:24;;;;;;;22.97;12.93;;;;;;;;;;10547777;28;20295;-74
2020/12/05 12:26:29;;;;;;;24.40;13.67;;;;;;;;;;10554067;28;20694;-75
2020/12/05 12:31:32;;;;;;;26.07;14.50;;;;;;;;;;10555115;28;20723;-76
2020/12/05 12:36:33;;;;;;;26.53;14.93;;;;;;;;;;10548760;28;20270;-74
2020/12/05 12:41:35;;;;;;;24.77;14.53;;;;;;;;;;10553953;28;20211;-75
2020/12/05 12:46:47;;;;;;;26.30;15.47;;;;;;;;;;10555098;28;20195;-75
2020/12/05 12:51:48;;;;;;;28.30;15.47;;;;;;;;;;10545050;28;20216;-75
2020/12/05 12:56:50;;;;;;;27.43;13.77;;;;;;;;;;10563676;28;20721;-74
2020/12/05 13:01:53;;;;;;;25.80;13.40;;;;;;;;;;10548882;28;20763;-74
2020/12/05 13:06:57;;;;;;;24.90;14.20;;;;;;;;;;10548068;28;20295;-75
2020/12/05 13:11:58;;;;;;;25.50;14.17;;;;;;;;;;10557315;28;20229;-74
2020/12/05 13:17:01;;;;;;;21.50;10.87;;;;;;;;;;10569911;28;20270;-77
2020/12/05 13:22:03;;;;;;;29.27;16.37;;;;;;;;;;10563443;28;20223;-74
2020/12/05 13:27:04;;;;;;;26.10;15.30;;;;;;;;;;10552461;28;20209;-76
2020/12/05 13:32:07;;;;;;;26.87;14.80;;;;;;;;;;10555082;28;20219;-75
2020/12/05 13:37:10;;;;;;;22.37;12.33;;;;;;;;;;10550916;28;20200;-75
2020/12/05 13:42:11;;;;;;;27.93;15.37;;;;;;;;;;10563388;28;20220;-76
2020/12/05 13:47:14;;;;;;;25.70;14.03;;;;;;;;;;10556374;28;20199;-75
2020/12/05 13:52:15;;;;;;;28.70;14.97;;;;;;;;;;10554697;28;20226;-74
2020/12/05 13:57:18;;;;;;;27.23;15.67;;;;;;;;;;10561239;28;20211;-74
2020/12/05 14:02:21;;;;;;;23.70;12.53;;;;;;;;;;10562513;28;20431;-74
2020/12/05 14:07:23;;;;;;;28.10;16.17;;;;;;;;;;10564529;28;20206;-76
2020/12/05 14:12:25;;;;;;;26.53;13.67;;;;;;;;;;10558642;28;20339;-74
2020/12/05 14:17:28;;;;;;;21.37;11.43;;;;;;;;;;10562128;28;20601;-74
2020/12/05 14:22:29;;;;;;;22.27;12.67;;;;;;;;;;10553557;28;20308;-75
2020/12/05 14:27:31;;;;;;;23.63;13.13;;;;;;;;;;10565427;28;20199;-75
2020/12/05 14:32:33;;;;;;;27.30;15.20;;;;;;;;;;10554858;28;20230;-74
2020/12/05 14:37:35;;;;;;;23.37;13.27;;;;;;;;;;10554171;28;20615;-76
2020/12/05 14:42:36;;;;;;;25.27;13.30;;;;;;;;;;10558284;28;20202;-74
2020/12/05 14:47:38;;;;;;;26.00;14.63;;;;;;;;;;10551069;28;20204;-72
2020/12/05 14:52:40;;;;;;;27.20;15.13;;;;;;;;;;10555147;28;20226;-75
2020/12/05 14:57:42;;;;;;;31.77;15.87;;;;;;;;;;10560208;28;20210;-75
2020/12/05 15:02:44;;;;;;;30.23;17.17;;;;;;;;;;10555281;28;20579;-75
2020/12/05 15:07:46;;;;;;;26.40;15.90;;;;;;;;;;10564723;28;20202;-75
2020/12/05 15:12:48;;;;;;;29.13;16.10;;;;;;;;;;10563870;28;20230;-75
2020/12/05 15:17:50;;;;;;;31.53;17.17;;;;;;;;;;10549805;28;20214;-75
2020/12/05 15:22:51;;;;;;;30.20;16.40;;;;;;;;;;10548824;28;20203;-74
2020/12/05 15:27:58;;;;;;;29.27;17.03;;;;;;;;;;10569735;28;20287;-75
2020/12/05 15:33:00;;;;;;;31.17;17.20;;;;;;;;;;10555395;28;20590;-75
2020/12/05 15:38:02;;;;;;;33.50;17.27;;;;;;;;;;10552363;28;20261;-74
2020/12/05 15:43:03;;;;;;;29.20;17.67;;;;;;;;;;10564352;28;20203;-76
2020/12/05 15:48:06;;;;;;;32.40;17.63;;;;;;;;;;10556188;28;20230;-74
2020/12/05 15:53:07;;;;;;;29.53;16.53;;;;;;;;;;10559922;28;20230;-75
2020/12/05 15:58:09;;;;;;;31.07;17.33;;;;;;;;;;10564328;28;20250;-76
2020/12/05 16:03:12;;;;;;;30.93;18.57;;;;;;;;;;10573586;28;20198;-76
2020/12/05 16:08:13;;;;;;;30.17;16.37;;;;;;;;;;10549346;28;20215;-74
2020/12/05 16:13:14;;;;;;;29.67;16.80;;;;;;;;;;10563547;28;20221;-74
2020/12/05 16:18:17;;;;;;;33.37;19.10;;;;;;;;;;10550767;28;20220;-74
2020/12/05 16:23:18;;;;;;;38.17;20.53;;;;;;;;;;10560243;28;20203;-75
2020/12/05 16:28:20;;;;;;;40.17;20.43;;;;;;;;;;10548444;28;20230;-74
2020/12/05 16:33:22;;;;;;;38.97;20.60;;;;;;;;;;10558813;28;20242;-75
2020/12/05 16:38:28;;;;;;;37.83;22.70;;;;;;;;;;10540188;28;20250;-75
2020/12/05 16:43:29;;;;;;;39.03;21.33;;;;;;;;;;10557510;28;20539;-74
2020/12/05 16:48:31;;;;;;;39.30;22.37;;;;;;;;;;10552852;28;20333;-75
2020/12/05 16:53:34;;;;;;;33.13;19.53;;;;;;;;;;10546637;28;20222;-76
2020/12/05 16:58:36;;;;;;;31.20;19.23;;;;;;;;;;10558364;28;20251;-74
2020/12/05 17:03:38;;;;;;;33.17;19.23;;;;;;;;;;10550985;28;20208;-74
2020/12/05 17:08:40;;;;;;;31.37;19.23;;;;;;;;;;10548215;28;20553;-75
2020/12/05 17:13:45;;;;;;;31.73;18.13;;;;;;;;;;10554548;28;20226;-74
2020/12/05 17:18:48;;;;;;;31.97;19.20;;;;;;;;;;10555729;28;20223;-77
2020/12/05 17:23:50;;;;;;;34.67;19.07;;;;;;;;;;10558022;28;20195;-74
2020/12/05 17:28:51;;;;;;;36.83;20.40;;;;;;;;;;10541108;28;20223;-75
2020/12/05 17:33:54;;;;;;;37.93;20.83;;;;;;;;;;10547674;28;20242;-74
2020/12/05 17:38:56;;;;;;;45.73;24.93;;;;;;;;;;10547451;28;20220;-75
2020/12/05 17:43:57;;;;;;;40.13;22.53;;;;;;;;;;10541119;28;20203;-74
2020/12/05 17:48:59;;;;;;;40.17;21.37;;;;;;;;;;10544006;28;20223;-76
2020/12/05 17:54:03;;;;;;;38.03;21.33;;;;;;;;;;10549359;28;20223;-72
2020/12/05 17:59:04;;;;;;;40.37;22.20;;;;;;;;;;10548975;28;20591;-74
2020/12/05 18:04:06;;;;;;;50.47;27.20;;;;;;;;;;10550049;28;20202;-74
2020/12/05 18:09:11;;;;;;;56.80;27.30;;;;;;;;;;10554721;28;20594;-74
2020/12/05 18:14:13;;;;;;;56.77;29.60;;;;;;;;;;10550204;28;20563;-74
2020/12/05 18:19:15;;;;;;;53.33;27.83;;;;;;;;;;10569659;28;20242;-75
2020/12/05 18:24:17;;;;;;;43.97;23.50;;;;;;;;;;10566314;28;20192;-75
2020/12/05 18:29:18;;;;;;;36.70;21.33;;;;;;;;;;10563665;28;20535;-74
2020/12/05 18:34:20;;;;;;;34.40;20.73;;;;;;;;;;10572456;28;20223;-75
2020/12/05 18:39:22;;;;;;;35.90;20.17;;;;;;;;;;10547030;28;20219;-74
2020/12/05 18:44:23;;;;;;;36.80;19.43;;;;;;;;;;10555529;28;20273;-71
2020/12/05 18:49:27;;;;;;;34.60;18.33;;;;;;;;;;10552301;28;20280;-74
2020/12/05 18:54:29;;;;;;;35.07;19.70;;;;;;;;;;10547488;28;20222;-74
2020/12/05 18:59:32;;;;;;;36.80;19.67;;;;;;;;;;10555735;28;20247;-74
2020/12/05 19:04:35;;;;;;;36.47;20.70;;;;;;;;;;10550848;28;20206;-73
2020/12/05 19:09:36;;;;;;;37.23;19.57;;;;;;;;;;10547535;28;20563;-76
2020/12/05 19:14:38;;;;;;;36.17;20.17;;;;;;;;;;10557220;28;20219;-74
2020/12/05 19:19:40;;;;;;;38.10;20.87;;;;;;;;;;10553681;28;20714;-74
2020/12/05 19:24:41;;;;;;;39.67;21.10;;;;;;;;;;10563963;28;20206;-73
2020/12/05 19:29:43;;;;;;;43.83;22.93;;;;;;;;;;10553981;28;20226;-74
2020/12/05 19:34:45;;;;;;;43.33;20.30;;;;;;;;;;10555155;28;20242;-74
2020/12/05 19:39:47;;;;;;;38.53;20.23;;;;;;;;;;10546269;28;20242;-75
2020/12/05 19:44:48;;;;;;;41.47;21.27;;;;;;;;;;10552415;28;20203;-73
2020/12/05 19:49:50;;;;;;;40.73;21.53;;;;;;;;;;10555667;28;20223;-74
2020/12/05 19:54:52;;;;;;;38.57;22.10;;;;;;;;;;10556209;28;20218;-74
2020/12/05 19:59:53;;;;;;;40.70;20.93;;;;;;;;;;10556106;28;20654;-76
2020/12/05 20:04:55;;;;;;;42.77;22.40;;;;;;;;;;10557559;28;20198;-75
2020/12/05 20:10:02;;;;;;;41.60;21.17;;;;;;;;;;10558004;28;20219;-75
2020/12/05 20:15:04;;;;;;;41.67;21.47;;;;;;;;;;10541218;28;20303;-74
2020/12/05 20:20:06;;;;;;;42.00;20.80;;;;;;;;;;10561456;28;20223;-75
2020/12/05 20:25:12;;;;;;;46.90;22.80;;;;;;;;;;10540470;28;20206;-75
2020/12/05 20:30:13;;;;;;;41.77;22.07;;;;;;;;;;10558677;28;20222;-74
2020/12/05 20:35:16;;;;;;;42.77;22.47;;;;;;;;;;10547005;28;20234;-73
2020/12/05 20:40:17;;;;;;;37.87;20.53;;;;;;;;;;10549156;28;20231;-75
2020/12/05 20:45:19;;;;;;;43.47;22.80;;;;;;;;;;10549098;28;20252;-74
2020/12/05 20:50:21;;;;;;;48.57;21.33;;;;;;;;;;10547789;28;20293;-74
2020/12/05 20:55:23;;;;;;;41.47;21.60;;;;;;;;;;10542745;28;20242;-73
2020/12/05 21:00:24;;;;;;;44.47;21.97;;;;;;;;;;10549674;28;20675;-75
2020/12/05 21:05:26;;;;;;;43.83;22.77;;;;;;;;;;10550049;28;20205;-75
2020/12/05 21:10:28;;;;;;;43.83;22.13;;;;;;;;;;10557793;28;20721;-76
2020/12/05 21:15:29;;;;;;;45.23;22.37;;;;;;;;;;10560750;28;20211;-75
2020/12/05 21:20:32;;;;;;;45.60;22.50;;;;;;;;;;10549195;28;20678;-77
2020/12/05 21:25:33;;;;;;;44.70;22.83;;;;;;;;;;10551410;28;20199;-76
2020/12/05 21:30:35;;;;;;;43.03;22.77;;;;;;;;;;10558732;28;20212;-76
2020/12/05 21:35:37;;;;;;;44.77;22.80;;;;;;;;;;10541566;28;20402;-74
2020/12/05 21:40:39;;;;;;;42.97;21.60;;;;;;;;;;10551046;28;20234;-74
2020/12/05 21:45:40;;;;;;;45.93;22.20;;;;;;;;;;10557285;28;20218;-74
2020/12/05 21:50:43;;;;;;;46.57;22.90;;;;;;;;;;10543911;28;20223;-74
2020/12/05 21:55:44;;;;;;;48.90;23.73;;;;;;;;;;10541865;28;20246;-74
2020/12/05 22:00:48;;;;;;;46.40;22.77;;;;;;;;;;10552256;28;20223;-75
2020/12/05 22:05:50;;;;;;;46.07;23.17;;;;;;;;;;10544959;28;20203;-75
2020/12/05 22:10:52;;;;;;;44.90;23.63;;;;;;;;;;10553547;28;20220;-74
2020/12/05 22:15:53;;;;;;;47.73;23.53;;;;;;;;;;10548937;28;20236;-74
2020/12/05 22:20:55;;;;;;;51.53;23.93;;;;;;;;;;10540504;28;20219;-74
2020/12/05 22:25:57;;;;;;;49.63;23.67;;;;;;;;;;10547606;28;20206;-75
2020/12/05 22:30:59;;;;;;;45.43;21.40;;;;;;;;;;10543574;28;20613;-73
2020/12/05 22:36:01;;;;;;;43.53;21.97;;;;;;;;;;10549717;28;20659;-74
2020/12/05 22:41:03;;;;;;;43.90;21.83;;;;;;;;;;10558397;28;20745;-75
2020/12/05 22:46:07;;;;;;;46.47;22.33;;;;;;;;;;10548629;28;20289;-74
2020/12/05 22:51:10;;;;;;;48.60;22.33;;;;;;;;;;10561609;28;20309;-72
2020/12/05 22:56:11;;;;;;;43.70;21.97;;;;;;;;;;10557739;28;20227;-74
2020/12/05 23:01:13;;;;;;;49.60;23.17;;;;;;;;;;10557642;28;20227;-74
2020/12/05 23:06:15;;;;;;;55.73;23.13;;;;;;;;;;10554814;28;20214;-74
2020/12/05 23:11:17;;;;;;;48.53;22.20;;;;;;;;;;10542984;28;20215;-73
2020/12/05 23:16:18;;;;;;;51.20;22.20;;;;;;;;;;10557417;28;20231;-74
2020/12/05 23:21:22;;;;;;;49.03;23.00;;;;;;;;;;10549795;28;20228;-74
2020/12/05 23:26:24;;;;;;;48.27;23.77;;;;;;;;;;10552864;28;21167;-74
2020/12/05 23:31:41;;;;;;;48.40;23.33;;;;;;;;;;10550961;28;20231;-74
2020/12/05 23:36:45;;;;;;;47.43;24.03;;;;;;;;;;10561894;28;20199;-74
2020/12/05 23:41:47;;;;;;;49.07;23.63;;;;;;;;;;10546959;28;20319;-75
2020/12/05 23:46:49;;;;;;;43.37;21.70;;;;;;;;;;10547898;28;20203;-75
2020/12/05 23:51:51;;;;;;;47.50;21.80;;;;;;;;;;10545986;28;20235;-74
2020/12/05 23:56:55;;;;;;;43.53;22.40;;;;;;;;;;10548492;28;20411;-74
